createdAt,value
2019-03-30T00:01:07.442Z,1.50
2019-03-30T00:03:37.326Z,1.50
2019-03-30T00:06:07.631Z,1.60
2019-03-30T00:08:37.289Z,1.40
2019-03-30T00:11:06.857Z,1.30
2019-03-30T00:13:36.422Z,1.30
2019-03-30T00:16:05.956Z,1.30
2019-03-30T00:18:35.530Z,1.20
2019-03-30T00:21:05.079Z,1.30
2019-03-30T00:23:34.642Z,1.20
2019-03-30T00:26:04.194Z,1.20
2019-03-30T00:28:33.734Z,1.20
2019-03-30T00:31:03.451Z,1.00
2019-03-30T00:33:32.990Z,0.90
2019-03-30T00:36:02.552Z,0.80
2019-03-30T00:38:32.105Z,0.90
2019-03-30T00:41:02.000Z,0.80
2019-03-30T00:43:31.907Z,0.70
2019-03-30T00:46:01.447Z,0.70
2019-03-30T00:48:31.091Z,0.70
2019-03-30T00:51:00.647Z,0.70
2019-03-30T00:53:30.217Z,0.70
2019-03-30T00:55:59.795Z,0.70
2019-03-30T00:58:29.366Z,0.70
2019-03-30T01:00:59.213Z,0.70
2019-03-30T01:03:28.778Z,0.70
2019-03-30T01:05:58.433Z,0.70
2019-03-30T01:08:28.042Z,0.70
2019-03-30T01:10:57.945Z,0.60
2019-03-30T01:13:27.503Z,0.60
2019-03-30T01:15:57.039Z,0.50
2019-03-30T01:18:26.597Z,0.60
2019-03-30T01:20:56.217Z,0.80
2019-03-30T01:23:25.775Z,0.90
2019-03-30T01:25:55.327Z,0.90
2019-03-30T01:28:25.980Z,0.80
2019-03-30T01:30:55.515Z,0.70
2019-03-30T01:33:25.073Z,0.70
2019-03-30T01:35:54.614Z,0.80
2019-03-30T01:38:24.269Z,0.90
2019-03-30T01:40:53.808Z,0.80
2019-03-30T01:43:23.345Z,0.80
2019-03-30T01:45:52.908Z,0.70
2019-03-30T01:48:22.466Z,0.80
2019-03-30T01:50:53.126Z,0.80
2019-03-30T01:53:22.658Z,0.80
2019-03-30T01:55:52.266Z,0.60
2019-03-30T01:58:21.795Z,0.60
2019-03-30T02:00:51.441Z,0.70
2019-03-30T02:03:20.989Z,0.60
2019-03-30T02:05:50.551Z,0.50
2019-03-30T02:08:20.124Z,0.50
2019-03-30T02:10:49.667Z,0.60
2019-03-30T02:13:19.265Z,0.60
2019-03-30T02:15:49.811Z,0.50
2019-03-30T02:18:19.380Z,0.50
2019-03-30T02:20:48.957Z,0.50
2019-03-30T02:23:18.585Z,0.40
2019-03-30T02:25:48.054Z,0.40
2019-03-30T02:28:17.615Z,0.40
2019-03-30T02:30:47.578Z,0.40
2019-03-30T02:33:19.822Z,0.40
2019-03-30T02:35:50.427Z,0.30
2019-03-30T02:38:19.967Z,0.30
2019-03-30T02:40:49.519Z,0.30
2019-03-30T02:43:19.072Z,0.20
2019-03-30T02:45:48.646Z,0.20
2019-03-30T02:48:18.254Z,0.20
2019-03-30T02:50:50.333Z,0.30
2019-03-30T02:53:19.146Z,0.20
2019-03-30T02:55:48.714Z,0.20
2019-03-30T02:58:18.266Z,0.30
2019-03-30T03:00:47.853Z,0.30
2019-03-30T03:03:17.400Z,0.30
2019-03-30T03:05:47.039Z,0.30
2019-03-30T03:08:16.566Z,0.30
2019-03-30T03:10:46.122Z,0.20
2019-03-30T03:13:15.683Z,0.20
2019-03-30T03:15:45.262Z,0.10
2019-03-30T03:18:14.845Z,0.20
2019-03-30T03:20:44.462Z,0.10
2019-03-30T03:23:14.098Z,0.00
2019-03-30T03:25:43.656Z,0.00
2019-03-30T03:28:14.233Z,0.00
2019-03-30T03:30:44.606Z,0.00
2019-03-30T03:33:14.227Z,0.10
2019-03-30T03:35:43.794Z,0.00
2019-03-30T03:38:13.349Z,-0.10
2019-03-30T03:40:42.893Z,-0.10
2019-03-30T03:43:14.632Z,-0.30
2019-03-30T03:45:44.226Z,-0.20
2019-03-30T03:48:13.783Z,0.00
2019-03-30T03:50:44.664Z,0.10
2019-03-30T03:53:15.315Z,-0.10
2019-03-30T03:55:44.872Z,-0.30
2019-03-30T03:58:15.916Z,-0.30
2019-03-30T04:00:45.737Z,-0.30
2019-03-30T04:03:17.094Z,-0.30
2019-03-30T04:05:47.677Z,-0.30
2019-03-30T04:08:17.416Z,-0.20
2019-03-30T04:10:47.478Z,-0.30
2019-03-30T04:13:17.058Z,-0.30
2019-03-30T04:16:05.976Z,-0.20
2019-03-30T04:18:35.616Z,-0.30
2019-03-30T04:21:05.163Z,-0.30
2019-03-30T04:23:34.704Z,-0.30
2019-03-30T04:26:04.365Z,-0.20
2019-03-30T04:28:34.803Z,-0.10
2019-03-30T04:31:04.389Z,-0.30
2019-03-30T04:33:33.947Z,-0.60
2019-03-30T04:36:03.509Z,-0.60
2019-03-30T04:38:33.062Z,-0.40
2019-03-30T04:41:02.564Z,-0.50
2019-03-30T04:43:32.127Z,-0.30
2019-03-30T04:46:01.698Z,-0.40
2019-03-30T04:48:31.275Z,-0.30
2019-03-30T04:51:00.837Z,-0.30
2019-03-30T04:53:30.421Z,-0.10
2019-03-30T04:55:59.979Z,0.00
2019-03-30T04:58:29.543Z,0.10
2019-03-30T05:00:59.138Z,0.40
2019-03-30T05:03:28.680Z,0.50
2019-03-30T05:05:58.223Z,0.60
2019-03-30T05:08:27.774Z,0.80
2019-03-30T05:10:57.251Z,1.10
2019-03-30T05:13:26.853Z,1.30
2019-03-30T05:15:56.409Z,1.70
2019-03-30T05:18:25.964Z,2.00
2019-03-30T05:20:55.518Z,2.40
2019-03-30T05:23:25.057Z,2.90
2019-03-30T05:25:54.646Z,3.10
2019-03-30T05:28:24.246Z,3.60
2019-03-30T05:30:53.795Z,4.20
2019-03-30T05:33:23.711Z,4.60
2019-03-30T05:35:53.252Z,4.40
2019-03-30T05:38:22.838Z,4.50
2019-03-30T05:40:52.375Z,5.20
2019-03-30T05:43:22.947Z,5.70
2019-03-30T05:45:52.514Z,5.30
2019-03-30T05:48:22.061Z,5.20
2019-03-30T05:50:51.627Z,5.60
2019-03-30T05:53:21.155Z,6.10
2019-03-30T05:56:03.515Z,6.50
2019-03-30T05:58:33.114Z,5.90
2019-03-30T06:01:02.662Z,5.20
2019-03-30T06:03:32.227Z,5.10
2019-03-30T06:06:01.769Z,5.10
2019-03-30T06:08:31.395Z,5.00
2019-03-30T06:11:00.939Z,5.30
2019-03-30T06:13:30.525Z,5.90
2019-03-30T06:16:00.087Z,6.70
2019-03-30T06:18:29.650Z,7.30
2019-03-30T06:20:59.241Z,7.30
2019-03-30T06:23:28.962Z,7.30
2019-03-30T06:25:58.518Z,7.80
2019-03-30T06:28:28.084Z,8.20
2019-03-30T06:30:57.687Z,8.70
2019-03-30T06:33:27.297Z,8.60
2019-03-30T06:35:56.840Z,8.30
2019-03-30T06:38:26.407Z,8.10
2019-03-30T06:40:55.957Z,8.10
2019-03-30T06:43:26.526Z,8.20
2019-03-30T06:45:56.438Z,8.20
2019-03-30T06:48:25.979Z,8.30
2019-03-30T06:50:55.538Z,8.50
2019-03-30T06:53:25.091Z,8.80
2019-03-30T06:55:54.655Z,8.80
2019-03-30T06:58:24.311Z,8.90
2019-03-30T07:00:53.890Z,9.50
2019-03-30T07:03:23.447Z,10.00
2019-03-30T07:05:53.084Z,10.40
2019-03-30T07:08:22.645Z,10.90
2019-03-30T07:10:52.189Z,11.00
2019-03-30T07:13:21.779Z,11.00
2019-03-30T07:15:51.345Z,10.90
2019-03-30T07:18:20.907Z,11.10
2019-03-30T07:20:50.769Z,10.90
2019-03-30T07:23:20.322Z,11.00
2019-03-30T07:25:49.905Z,11.00
2019-03-30T07:28:19.465Z,11.00
2019-03-30T07:30:49.014Z,10.70
2019-03-30T07:33:18.582Z,10.70
2019-03-30T07:35:49.223Z,10.70
2019-03-30T07:38:18.990Z,10.60
2019-03-30T07:40:48.543Z,10.80
2019-03-30T07:43:18.120Z,11.10
2019-03-30T07:45:47.666Z,11.10
2019-03-30T07:48:17.551Z,11.30
2019-03-30T07:50:47.519Z,11.70
2019-03-30T07:53:26.436Z,11.90
2019-03-30T07:55:50.141Z,11.80
2019-03-30T07:58:19.672Z,10.60
2019-03-30T08:00:49.232Z,11.30
2019-03-30T08:03:18.783Z,11.60
2019-03-30T08:05:48.343Z,12.10
2019-03-30T08:08:17.913Z,12.30
2019-03-30T08:10:47.454Z,12.70
2019-03-30T08:13:17.007Z,12.50
2019-03-30T08:15:46.570Z,12.60
2019-03-30T08:18:16.118Z,12.30
2019-03-30T08:20:45.700Z,11.90
2019-03-30T08:23:15.247Z,11.50
2019-03-30T08:25:44.800Z,11.50
2019-03-30T08:28:27.152Z,11.90
2019-03-30T08:30:56.692Z,12.30
2019-03-30T08:33:26.684Z,13.10
2019-03-30T08:35:56.194Z,13.20
2019-03-30T08:38:25.755Z,13.80
2019-03-30T08:40:55.323Z,14.00
2019-03-30T08:43:24.871Z,14.70
2019-03-30T08:45:54.435Z,15.60
2019-03-30T08:48:23.998Z,16.00
2019-03-30T08:50:53.545Z,14.70
2019-03-30T08:53:23.103Z,15.40
2019-03-30T08:55:52.664Z,16.00
2019-03-30T08:58:22.231Z,16.90
2019-03-30T09:00:51.759Z,17.20
2019-03-30T09:03:21.299Z,17.00
2019-03-30T09:05:50.866Z,16.80
2019-03-30T09:08:20.408Z,17.30
2019-03-30T09:10:50.016Z,18.40
2019-03-30T09:13:19.551Z,18.40
2019-03-30T09:15:49.105Z,17.90
2019-03-30T09:18:18.654Z,19.70
2019-03-30T09:20:48.198Z,20.70
2019-03-30T09:23:17.778Z,20.20
2019-03-30T09:25:47.345Z,19.30
2019-03-30T09:28:16.892Z,20.80
2019-03-30T09:30:46.453Z,20.40
2019-03-30T09:33:16.309Z,19.40
2019-03-30T09:35:46.886Z,18.10
2019-03-30T09:38:16.427Z,17.70
2019-03-30T09:40:45.979Z,18.10
2019-03-30T09:43:15.537Z,18.60
2019-03-30T09:45:46.217Z,20.00
2019-03-30T09:48:15.852Z,20.20
2019-03-30T09:50:45.381Z,20.80
2019-03-30T09:53:14.970Z,19.50
2019-03-30T09:55:44.515Z,20.80
2019-03-30T09:58:14.073Z,20.30
2019-03-30T10:00:43.657Z,20.50
2019-03-30T10:03:13.218Z,20.60
2019-03-30T10:05:42.759Z,20.10
2019-03-30T10:08:12.329Z,20.30
2019-03-30T10:10:41.899Z,20.30
2019-03-30T10:13:11.472Z,19.60
2019-03-30T10:15:41.008Z,20.00
2019-03-30T10:18:10.560Z,19.60
2019-03-30T10:20:40.125Z,20.70
2019-03-30T10:23:09.659Z,19.60
2019-03-30T10:25:39.231Z,21.00
2019-03-30T10:28:08.767Z,20.90
2019-03-30T10:30:38.346Z,21.10
2019-03-30T10:33:07.879Z,20.90
2019-03-30T10:35:37.460Z,20.00
2019-03-30T10:38:07.230Z,20.90
2019-03-30T10:40:36.773Z,21.20
2019-03-30T10:43:06.417Z,21.00
2019-03-30T10:45:35.962Z,20.70
2019-03-30T10:48:05.535Z,20.70
2019-03-30T10:50:35.102Z,20.30
2019-03-30T10:53:04.630Z,20.10
2019-03-30T10:55:34.198Z,19.10
2019-03-30T10:58:03.743Z,17.30
2019-03-30T11:00:37.544Z,17.50
2019-03-30T11:03:07.393Z,18.70
2019-03-30T11:05:36.979Z,17.70
2019-03-30T11:08:06.666Z,17.50
2019-03-30T11:10:36.347Z,18.10
2019-03-30T11:13:05.904Z,17.40
2019-03-30T11:15:35.470Z,18.00
2019-03-30T11:18:05.050Z,19.30
2019-03-30T11:20:34.613Z,20.10
2019-03-30T11:23:04.167Z,20.10
2019-03-30T11:25:33.729Z,19.90
2019-03-30T11:28:03.266Z,19.80
2019-03-30T11:30:32.818Z,19.70
2019-03-30T11:33:02.600Z,19.90
2019-03-30T11:35:32.127Z,20.20
2019-03-30T11:38:02.594Z,21.20
2019-03-30T11:40:32.148Z,22.40
2019-03-30T11:43:01.799Z,22.30
2019-03-30T11:45:31.479Z,22.10
2019-03-30T11:48:01.041Z,21.80
2019-03-30T11:50:30.793Z,23.70
2019-03-30T11:53:00.386Z,23.10
2019-03-30T11:55:29.925Z,22.40
2019-03-30T11:57:59.475Z,22.20
2019-03-30T12:00:29.084Z,22.40
2019-03-30T12:02:58.633Z,22.10
2019-03-30T12:05:28.184Z,22.90
2019-03-30T12:07:57.787Z,22.30
2019-03-30T12:10:27.363Z,22.30
2019-03-30T12:12:56.906Z,22.70
2019-03-30T12:15:26.886Z,21.90
2019-03-30T12:17:56.447Z,21.30
2019-03-30T12:20:26.012Z,21.20
2019-03-30T12:22:55.635Z,22.00
2019-03-30T12:25:35.480Z,22.00
2019-03-30T12:27:56.437Z,22.10
2019-03-30T12:30:25.998Z,21.00
2019-03-30T12:32:55.547Z,20.70
2019-03-30T12:35:25.111Z,20.40
2019-03-30T12:37:54.669Z,19.40
2019-03-30T12:40:24.539Z,19.60
2019-03-30T12:42:54.165Z,20.10
2019-03-30T12:45:23.777Z,20.30
2019-03-30T12:47:53.353Z,20.10
2019-03-30T12:50:22.896Z,19.70
2019-03-30T12:52:52.448Z,19.60
2019-03-30T12:55:22.031Z,19.70
2019-03-30T12:57:51.590Z,19.60
2019-03-30T13:00:21.143Z,19.60
2019-03-30T13:02:50.969Z,19.20
2019-03-30T13:05:20.520Z,19.00
2019-03-30T13:07:50.068Z,19.30
2019-03-30T13:10:19.642Z,19.30
2019-03-30T13:12:49.194Z,19.00
2019-03-30T13:15:18.740Z,18.80
2019-03-30T13:17:48.326Z,18.80
2019-03-30T13:20:18.727Z,18.70
2019-03-30T13:22:48.274Z,18.60
2019-03-30T13:25:17.823Z,18.20
2019-03-30T13:27:47.375Z,18.10
2019-03-30T13:30:17.314Z,17.90
2019-03-30T13:32:46.875Z,17.90
2019-03-30T13:35:16.427Z,17.80
2019-03-30T13:37:46.007Z,17.80
2019-03-30T13:40:15.544Z,17.80
2019-03-30T13:42:45.162Z,17.90
2019-03-30T13:45:14.707Z,17.90
2019-03-30T13:47:44.249Z,18.00
2019-03-30T13:50:14.164Z,17.80
2019-03-30T13:52:44.724Z,17.80
2019-03-30T13:55:14.302Z,17.70
2019-03-30T13:57:44.191Z,17.80
2019-03-30T14:00:13.742Z,18.10
2019-03-30T14:02:44.186Z,17.90
2019-03-30T14:05:13.811Z,18.10
2019-03-30T14:07:43.356Z,18.00
2019-03-30T14:10:12.943Z,18.00
2019-03-30T14:12:42.485Z,17.90
2019-03-30T14:15:12.057Z,17.70
2019-03-30T14:17:41.639Z,17.70
2019-03-30T14:20:11.192Z,17.50
2019-03-30T14:22:40.740Z,17.50
2019-03-30T14:25:10.369Z,17.40
2019-03-30T14:27:39.940Z,17.40
2019-03-30T14:30:10.809Z,17.30
2019-03-30T14:32:40.975Z,17.30
2019-03-30T14:35:10.648Z,17.20
2019-03-30T14:37:40.251Z,17.10
2019-03-30T14:40:09.872Z,17.20
2019-03-30T14:42:39.395Z,17.30
2019-03-30T14:45:10.671Z,17.30
2019-03-30T14:47:40.215Z,17.20
2019-03-30T14:50:09.785Z,17.20
2019-03-30T14:52:39.391Z,17.30
2019-03-30T14:55:08.932Z,17.40
2019-03-30T14:57:39.593Z,17.20
2019-03-30T15:00:12.880Z,17.20
2019-03-30T15:02:42.531Z,17.20
2019-03-30T15:05:12.101Z,17.20
2019-03-30T15:07:41.672Z,17.10
2019-03-30T15:10:12.205Z,17.20
2019-03-30T15:12:41.761Z,17.30
2019-03-30T15:15:11.509Z,17.20
2019-03-30T17:38:17.301Z,10.10
2019-03-30T17:40:46.801Z,9.30
2019-03-30T17:43:16.367Z,9.10
2019-03-30T17:45:45.911Z,8.90
2019-03-30T17:48:15.843Z,8.70
2019-03-30T17:50:45.405Z,8.70
2019-03-30T17:53:14.934Z,8.80
2019-03-30T17:55:45.732Z,8.90
2019-03-30T17:58:15.255Z,9.00
2019-03-30T18:00:45.118Z,8.80
2019-03-30T18:03:14.660Z,8.70
2019-03-30T18:05:44.207Z,8.30
2019-03-30T18:08:13.772Z,8.10
2019-03-30T18:10:43.313Z,8.10
2019-03-30T18:13:14.294Z,7.70
2019-03-30T18:15:43.830Z,7.80
2019-03-30T18:18:13.750Z,7.90
2019-03-30T18:20:43.321Z,7.30
2019-03-30T18:23:12.873Z,7.60
2019-03-30T18:25:42.428Z,7.60
2019-03-30T18:28:26.200Z,7.40
2019-03-30T18:30:43.527Z,7.10
2019-03-30T18:33:13.140Z,7.10
2019-03-30T18:35:43.124Z,7.00
2019-03-30T18:38:13.303Z,6.80
2019-03-30T18:40:42.931Z,6.70
2019-03-30T18:43:13.446Z,6.60
2019-03-30T18:45:43.297Z,6.50
2019-03-30T18:48:15.098Z,7.00
2019-03-30T18:50:45.549Z,6.90
2019-03-30T18:53:15.987Z,6.90
2019-03-30T18:55:45.531Z,6.70
2019-03-30T18:58:15.097Z,6.80
2019-03-30T19:00:44.634Z,6.90
2019-03-30T19:03:14.218Z,6.80
2019-03-30T19:05:44.843Z,6.70
2019-03-30T19:08:15.660Z,6.60
2019-03-30T19:10:45.193Z,6.60
2019-03-30T19:13:15.262Z,6.50
2019-03-30T19:15:44.798Z,6.70
2019-03-30T19:18:14.379Z,6.70
2019-03-30T19:20:43.940Z,6.90
2019-03-30T19:23:14.482Z,6.80
2019-03-30T19:25:44.035Z,6.70
2019-03-30T19:28:13.587Z,6.60
2019-03-30T19:30:43.142Z,6.40
2019-03-30T19:33:13.716Z,6.30
2019-03-30T19:36:02.620Z,6.30
2019-03-30T19:38:32.152Z,6.40
2019-03-30T19:41:01.995Z,6.40
2019-03-30T19:43:32.687Z,6.10
2019-03-30T19:46:02.687Z,6.20
2019-03-30T19:48:32.376Z,6.10
2019-03-30T19:51:01.923Z,6.30
2019-03-30T19:53:31.472Z,6.20
2019-03-30T19:56:01.058Z,6.40
2019-03-30T19:58:30.616Z,6.50
2019-03-30T20:01:00.161Z,6.50
2019-03-30T20:03:29.738Z,6.50
2019-03-30T20:05:59.303Z,6.60
2019-03-30T20:08:28.896Z,6.30
2019-03-30T20:10:58.431Z,6.20
2019-03-30T20:13:28.467Z,6.10
2019-03-30T20:15:58.382Z,5.80
2019-03-30T20:18:27.942Z,5.90
2019-03-30T20:20:57.927Z,5.60
2019-03-30T20:23:27.458Z,5.60
2019-03-30T20:25:57.004Z,5.50
2019-03-30T20:28:26.575Z,5.50
2019-03-30T20:30:56.136Z,5.50
2019-03-30T20:33:25.698Z,5.30
2019-03-30T20:35:55.239Z,5.30
2019-03-30T20:38:24.847Z,5.30
2019-03-30T20:40:54.385Z,5.30
2019-03-30T20:43:23.946Z,5.40
2019-03-30T20:45:53.487Z,5.40
2019-03-30T20:48:23.356Z,5.30
2019-03-30T20:50:52.952Z,5.20
2019-03-30T20:53:22.689Z,4.90
2019-03-30T20:55:52.227Z,5.10
2019-03-30T20:58:21.771Z,5.00
2019-03-30T21:00:51.310Z,5.10
2019-03-30T21:03:20.879Z,5.00
2019-03-30T21:05:50.418Z,4.90
2019-03-30T21:08:19.959Z,4.70
2019-03-30T21:10:49.503Z,4.70
2019-03-30T21:13:19.053Z,5.00
2019-03-30T21:15:48.667Z,5.00
2019-03-30T21:18:18.206Z,4.60
2019-03-30T21:20:47.866Z,4.60
2019-03-30T21:23:17.418Z,4.60
2019-03-30T21:25:47.584Z,4.50
2019-03-30T21:28:18.046Z,4.60
2019-03-30T21:30:47.594Z,4.70
2019-03-30T21:33:17.377Z,4.60
2019-03-30T21:35:46.932Z,4.60
2019-03-30T21:38:17.830Z,4.60
2019-03-30T21:40:47.580Z,4.60
2019-03-30T21:43:19.702Z,4.60
2019-03-30T21:45:48.740Z,4.60
2019-03-30T21:48:18.916Z,4.70
2019-03-30T21:50:48.447Z,4.60
2019-03-30T21:53:18.073Z,4.70
2019-03-30T21:55:47.603Z,4.60
2019-03-30T21:58:17.168Z,4.60
2019-03-30T22:00:46.715Z,4.70
2019-03-30T22:03:16.251Z,4.80
2019-03-30T22:05:45.827Z,4.80
2019-03-30T22:08:17.234Z,4.70
2019-03-30T22:10:46.584Z,4.60
2019-03-30T22:13:16.116Z,4.40
2019-03-30T22:15:45.664Z,4.30
2019-03-30T22:18:15.206Z,4.30
2019-03-30T22:20:44.756Z,4.30
2019-03-30T22:23:14.355Z,4.20
2019-03-30T22:25:43.899Z,4.20
2019-03-30T22:28:13.436Z,4.10
2019-03-30T22:30:43.953Z,4.10
2019-03-30T22:33:13.515Z,4.10
2019-03-30T22:35:43.085Z,4.00
2019-03-30T22:38:12.640Z,3.90
2019-03-30T22:40:42.179Z,3.80
2019-03-30T22:43:12.580Z,3.60
2019-03-30T22:45:42.127Z,3.70
2019-03-30T22:48:11.743Z,4.00
2019-03-30T22:50:41.414Z,3.90
2019-03-30T22:53:11.307Z,3.90
2019-03-30T22:55:40.841Z,3.80
2019-03-30T22:58:10.407Z,3.70
2019-03-30T23:00:41.974Z,3.80
2019-03-30T23:03:13.378Z,3.70
2019-03-30T23:05:42.982Z,3.50
2019-03-30T23:08:12.533Z,3.50
2019-03-30T23:10:42.407Z,3.50
2019-03-30T23:13:11.999Z,3.60
2019-03-30T23:15:41.559Z,3.60
2019-03-30T23:18:11.095Z,3.50
2019-03-30T23:20:40.672Z,3.50
2019-03-30T23:23:10.207Z,3.70
2019-03-30T23:25:39.804Z,3.80
2019-03-30T23:28:09.362Z,3.90
2019-03-30T23:30:53.185Z,3.80
2019-03-30T23:33:10.214Z,4.00
2019-03-30T23:35:39.754Z,3.80
2019-03-30T23:38:09.216Z,3.70
2019-03-30T23:40:38.769Z,3.50
2019-03-30T23:43:10.809Z,3.40
2019-03-30T23:45:45.437Z,3.60
2019-03-30T23:48:27.385Z,3.50
2019-03-30T23:51:14.116Z,3.50
2019-03-30T23:53:55.132Z,3.50
2019-03-30T23:59:38.695Z,3.30
